createdAt,value
2023-04-02T00:02:23.584Z,12.15
2023-04-02T00:05:18.616Z,12.13
2023-04-02T00:07:53.145Z,12.13
2023-04-02T00:10:28.597Z,12.11
2023-04-02T00:13:12.824Z,12.09
2023-04-02T00:15:44.003Z,12.08
2023-04-02T00:18:16.795Z,12.08
2023-04-02T00:20:50.336Z,12.09
2023-04-02T00:23:19.074Z,12.09
2023-04-02T00:25:48.344Z,12.09
2023-04-02T00:28:21.097Z,12.08
2023-04-02T00:30:56.699Z,12.05
2023-04-02T00:33:30.409Z,12.06
2023-04-02T00:35:58.484Z,12.05
2023-04-02T00:38:35.105Z,12.05
2023-04-02T00:41:04.447Z,12.06
2023-04-02T00:43:36.091Z,12.06
2023-04-02T00:46:11.176Z,12.08
2023-04-02T00:49:04.306Z,12.10
2023-04-02T00:51:42.764Z,12.11
2023-04-02T00:54:15.833Z,12.09
2023-04-02T00:56:46.482Z,12.12
2023-04-02T00:59:35.994Z,12.12
2023-04-02T01:02:19.220Z,12.15
2023-04-02T01:04:54.520Z,12.17
2023-04-02T01:07:30.300Z,12.20
2023-04-02T01:10:08.348Z,12.24
2023-04-02T01:12:43.976Z,12.27
2023-04-02T01:15:30.618Z,12.25
2023-04-02T01:18:04.831Z,12.28
2023-04-02T01:20:56.815Z,12.28
2023-04-02T01:23:34.791Z,12.29
2023-04-02T01:26:19.649Z,12.32
2023-04-02T01:29:26.202Z,12.35
2023-04-02T01:31:55.997Z,12.38
2023-04-02T01:34:27.362Z,12.43
2023-04-02T01:37:25.536Z,12.46
2023-04-02T01:39:56.842Z,12.49
2023-04-02T01:42:33.419Z,12.52
2023-04-02T01:45:21.940Z,12.57
2023-04-02T01:47:51.301Z,12.58
2023-04-02T01:50:19.276Z,12.55
2023-04-02T01:52:49.778Z,12.52
2023-04-02T01:55:21.231Z,12.46
2023-04-02T01:57:53.416Z,12.44
2023-04-02T02:00:23.821Z,12.44
2023-04-02T02:02:52.480Z,12.44
2023-04-02T02:05:23.007Z,12.41
2023-04-02T02:07:53.811Z,12.38
2023-04-02T02:10:28.063Z,12.39
2023-04-02T02:12:56.612Z,12.45
2023-04-02T02:15:24.743Z,12.49
2023-04-02T02:18:01.019Z,12.48
2023-04-02T02:20:29.730Z,12.47
2023-04-02T02:23:02.694Z,12.50
2023-04-02T02:25:33.360Z,12.44
2023-04-02T02:28:14.224Z,12.38
2023-04-02T02:31:08.214Z,12.32
2023-04-02T02:33:42.381Z,12.29
2023-04-02T02:36:17.775Z,12.27
2023-04-02T02:38:50.678Z,12.27
2023-04-02T02:41:35.750Z,12.26
2023-04-02T02:44:09.932Z,12.24
2023-04-02T02:47:00.361Z,12.23
2023-04-02T02:49:31.757Z,12.24
2023-04-02T02:52:09.170Z,12.22
2023-04-02T02:54:45.727Z,12.21
2023-04-02T02:57:18.004Z,12.18
2023-04-02T02:59:47.734Z,12.17
2023-04-02T03:02:17.664Z,12.18
2023-04-02T03:04:49.919Z,12.18
2023-04-02T03:07:19.338Z,12.17
2023-04-02T03:10:12.741Z,12.16
2023-04-02T03:12:49.954Z,12.12
2023-04-02T03:15:56.065Z,12.14
2023-04-02T03:18:42.127Z,12.14
2023-04-02T03:21:14.104Z,12.16
2023-04-02T03:23:46.176Z,12.16
2023-04-02T03:26:18.782Z,12.14
2023-04-02T03:28:51.214Z,12.14
2023-04-02T03:31:24.891Z,12.14
2023-04-02T03:34:01.543Z,12.15
2023-04-02T03:36:34.394Z,12.14
2023-04-02T03:39:13.665Z,12.12
2023-04-02T03:41:49.567Z,12.11
2023-04-02T03:44:24.297Z,12.11
2023-04-02T03:46:58.102Z,12.11
2023-04-02T03:49:35.478Z,12.11
2023-04-02T03:52:26.814Z,12.08
2023-04-02T03:54:56.386Z,12.06
2023-04-02T03:57:49.714Z,12.06
2023-04-02T04:00:27.290Z,12.05
2023-04-02T04:03:16.970Z,12.04
2023-04-02T04:06:03.038Z,12.05
2023-04-02T04:08:38.223Z,12.06
2023-04-02T04:11:09.809Z,12.07
2023-04-02T04:13:48.841Z,12.06
2023-04-02T04:16:20.746Z,12.07
2023-04-02T04:19:05.186Z,12.08
2023-04-02T04:21:40.087Z,12.09
2023-04-02T04:24:23.819Z,12.08
2023-04-02T04:27:05.865Z,12.09
2023-04-02T04:30:06.249Z,12.12
2023-04-02T04:32:39.293Z,12.16
2023-04-02T04:35:27.771Z,12.18
2023-04-02T04:37:59.057Z,12.19
2023-04-02T04:40:34.209Z,12.20
2023-04-02T04:43:05.288Z,12.21
2023-04-02T04:45:46.140Z,12.21
2023-04-02T04:48:24.059Z,12.17
2023-04-02T04:50:54.887Z,12.18
2023-04-02T04:53:28.346Z,12.20
2023-04-02T04:56:16.083Z,12.22
2023-04-02T04:58:53.260Z,12.23
2023-04-02T05:01:38.477Z,12.24
2023-04-02T05:04:19.044Z,12.23
2023-04-02T05:06:53.186Z,12.25
2023-04-02T05:09:42.293Z,12.30
2023-04-02T05:12:21.818Z,12.37
2023-04-02T05:15:12.069Z,12.37
2023-04-02T05:18:19.243Z,12.35
2023-04-02T05:21:14.475Z,12.38
2023-04-02T05:23:56.127Z,12.47
2023-04-02T05:26:28.502Z,12.56
2023-04-02T05:29:01.159Z,12.64
2023-04-02T05:32:07.820Z,12.70
2023-04-02T05:34:37.582Z,12.76
2023-04-02T05:37:07.230Z,12.79
2023-04-02T05:39:37.071Z,12.83
2023-04-02T05:42:06.620Z,12.86
2023-04-02T05:45:16.256Z,12.87
2023-04-02T05:47:47.199Z,12.89
2023-04-02T05:50:26.278Z,12.88
2023-04-02T05:53:04.074Z,12.87
2023-04-02T05:55:43.506Z,12.91
2023-04-02T05:58:34.596Z,12.92
2023-04-02T06:01:15.547Z,12.94
2023-04-02T06:03:59.319Z,12.95
2023-04-02T06:06:47.441Z,12.93
2023-04-02T06:09:24.486Z,12.92
2023-04-02T06:12:17.590Z,12.91
2023-04-02T06:14:46.479Z,12.90
2023-04-02T06:17:16.709Z,12.89
2023-04-02T06:19:46.090Z,12.87
2023-04-02T06:22:39.779Z,12.85
2023-04-02T06:25:21.625Z,12.84
2023-04-02T06:27:50.764Z,12.89
2023-04-02T06:30:32.871Z,12.92
2023-04-02T06:33:05.510Z,12.94
2023-04-02T06:35:36.110Z,12.96
2023-04-02T06:38:07.956Z,12.96
2023-04-02T06:40:46.567Z,12.92
2023-04-02T06:43:38.625Z,12.90
2023-04-02T06:46:43.040Z,12.91
2023-04-02T06:49:44.855Z,12.92
2023-04-02T06:52:21.257Z,12.92
2023-04-02T06:54:52.014Z,12.92
2023-04-02T06:57:21.535Z,12.93
2023-04-02T06:59:51.320Z,12.91
2023-04-02T07:02:35.064Z,12.92
2023-04-02T07:05:09.286Z,12.96
2023-04-02T07:07:39.852Z,12.98
2023-04-02T07:10:11.741Z,13.00
2023-04-02T07:12:39.988Z,13.01
2023-04-02T07:15:21.617Z,13.04
2023-04-02T07:17:50.005Z,13.07
2023-04-02T07:20:37.587Z,13.10
2023-04-02T07:23:09.266Z,13.13
2023-04-02T07:25:37.419Z,13.14
2023-04-02T07:28:06.353Z,13.15
2023-04-02T07:30:34.505Z,13.17
2023-04-02T07:33:02.964Z,13.18
2023-04-02T07:35:31.103Z,13.17
2023-04-02T07:38:02.475Z,13.19
2023-04-02T07:40:30.855Z,13.27
2023-04-02T07:42:58.983Z,13.33
2023-04-02T07:45:27.596Z,13.35
2023-04-02T07:47:56.712Z,13.34
2023-04-02T07:50:24.785Z,13.33
2023-04-02T07:52:52.807Z,13.32
2023-04-02T07:55:28.383Z,13.32
2023-04-02T07:57:58.432Z,13.36
2023-04-02T08:00:27.077Z,13.39
2023-04-02T08:03:14.953Z,13.43
2023-04-02T08:05:43.378Z,13.49
2023-04-02T08:08:11.332Z,13.53
2023-04-02T08:10:39.327Z,13.55
2023-04-02T08:13:09.826Z,13.59
2023-04-02T08:15:38.815Z,13.61
2023-04-02T08:18:06.845Z,13.60
2023-04-02T08:20:35.705Z,13.62
2023-04-02T08:23:04.318Z,13.58
2023-04-02T08:25:32.398Z,13.57
2023-04-02T08:28:03.858Z,13.58
2023-04-02T08:30:37.406Z,13.57
2023-04-02T08:33:06.695Z,13.55
2023-04-02T08:35:35.120Z,13.55
2023-04-02T08:38:03.378Z,13.56
2023-04-02T08:40:37.706Z,13.56
2023-04-02T08:43:23.121Z,13.55
2023-04-02T08:46:00.810Z,13.50
2023-04-02T08:48:30.154Z,13.46
2023-04-02T08:50:59.098Z,13.46
2023-04-02T08:53:33.474Z,13.46
2023-04-02T08:56:29.353Z,13.48
2023-04-02T08:58:59.759Z,13.48
2023-04-02T09:01:47.418Z,13.49
2023-04-02T09:04:18.963Z,13.51
2023-04-02T09:06:47.591Z,13.53
2023-04-02T09:09:16.108Z,13.55
2023-04-02T09:11:54.658Z,13.61
2023-04-02T09:14:52.151Z,13.68
2023-04-02T09:17:22.203Z,13.70
2023-04-02T09:20:13.097Z,13.69
2023-04-02T09:22:41.905Z,13.68
2023-04-02T09:25:14.365Z,13.64
2023-04-02T09:27:47.100Z,13.62
2023-04-02T09:30:23.886Z,13.64
2023-04-02T09:33:03.300Z,13.65
2023-04-02T09:35:33.234Z,13.63
2023-04-02T09:38:07.741Z,13.66
2023-04-02T09:41:04.678Z,13.71
2023-04-02T09:43:39.218Z,13.75
2023-04-02T09:46:13.047Z,13.79
2023-04-02T09:48:44.630Z,13.81
2023-04-02T09:51:16.560Z,13.82
2023-04-02T09:53:46.724Z,13.82
2023-04-02T09:56:25.661Z,13.82
2023-04-02T09:59:24.640Z,13.80
2023-04-02T10:01:56.074Z,13.78
2023-04-02T10:04:36.098Z,13.77
2023-04-02T10:07:06.530Z,13.73
2023-04-02T10:09:38.149Z,13.68
2023-04-02T10:12:07.670Z,13.64
2023-04-02T10:14:43.456Z,13.62
2023-04-02T10:17:16.154Z,13.57
2023-04-02T10:20:20.205Z,13.52
2023-04-02T10:22:48.300Z,13.46
2023-04-02T10:25:17.161Z,13.40
2023-04-02T10:28:02.234Z,13.35
2023-04-02T10:30:45.183Z,13.31
2023-04-02T10:33:25.294Z,13.29
2023-04-02T10:36:36.872Z,13.31
2023-04-02T10:40:09.028Z,13.30
2023-04-02T10:42:46.464Z,13.28
2023-04-02T10:45:17.320Z,13.16
2023-04-02T10:48:00.981Z,13.05
2023-04-02T10:50:45.732Z,12.99
2023-04-02T10:53:19.420Z,12.98
2023-04-02T10:55:54.123Z,12.96
2023-04-02T10:58:24.922Z,12.95
2023-04-02T11:01:03.639Z,12.93
2023-04-02T11:03:37.597Z,12.88
2023-04-02T11:06:21.464Z,12.85
2023-04-02T11:08:52.703Z,12.89
2023-04-02T11:11:22.777Z,12.93
2023-04-02T11:14:01.635Z,13.00
2023-04-02T11:16:29.761Z,13.09
2023-04-02T11:19:31.324Z,13.17
2023-04-02T11:22:06.469Z,13.24
2023-04-02T11:24:42.327Z,13.27
2023-04-02T11:27:27.902Z,13.29
2023-04-02T11:30:25.844Z,13.30
2023-04-02T11:32:57.111Z,13.26
2023-04-02T11:35:31.844Z,13.22
2023-04-02T11:38:11.891Z,13.18
2023-04-02T11:40:45.200Z,13.22
2023-04-02T11:43:38.404Z,13.28
2023-04-02T11:46:26.588Z,13.32
2023-04-02T11:48:55.375Z,13.36
2023-04-02T11:51:23.744Z,13.39
2023-04-02T11:53:58.464Z,13.40
2023-04-02T11:56:36.402Z,13.42
2023-04-02T11:59:18.325Z,13.44
2023-04-02T12:02:19.085Z,13.41
2023-04-02T12:05:16.898Z,13.40
2023-04-02T12:08:07.670Z,13.43
2023-04-02T12:11:01.483Z,13.50
2023-04-02T12:13:41.731Z,13.56
2023-04-02T12:16:13.183Z,13.62
2023-04-02T12:18:51.373Z,13.63
2023-04-02T12:21:22.149Z,13.65
2023-04-02T12:23:52.145Z,13.73
2023-04-02T12:26:26.671Z,13.84
2023-04-02T12:28:56.320Z,13.94
2023-04-02T12:31:25.383Z,14.04
2023-04-02T12:33:53.600Z,14.11
2023-04-02T12:36:23.919Z,14.15
2023-04-02T12:38:56.578Z,14.20
2023-04-02T12:41:30.464Z,14.27
2023-04-02T12:44:21.377Z,14.33
2023-04-02T12:46:49.612Z,14.37
2023-04-02T12:49:37.058Z,14.40
2023-04-02T12:52:10.885Z,14.39
2023-04-02T12:54:51.919Z,14.35
2023-04-02T12:57:21.175Z,14.28
2023-04-02T12:59:49.618Z,14.19
2023-04-02T13:02:22.688Z,14.13
2023-04-02T13:04:55.272Z,14.10
2023-04-02T13:07:27.146Z,14.05
2023-04-02T13:09:59.733Z,14.02
2023-04-02T13:12:40.382Z,14.00
2023-04-02T13:15:23.426Z,13.99
2023-04-02T13:18:21.512Z,13.99
2023-04-02T13:20:59.549Z,13.97
2023-04-02T13:23:27.599Z,13.94
2023-04-02T13:26:00.268Z,13.89
2023-04-02T13:28:31.184Z,13.87
2023-04-02T13:31:00.704Z,13.84
2023-04-02T13:33:31.124Z,13.78
2023-04-02T13:35:59.582Z,13.71
2023-04-02T13:38:28.580Z,13.64
2023-04-02T13:40:56.830Z,13.56
2023-04-02T13:43:24.970Z,13.48
2023-04-02T13:45:53.450Z,13.42
2023-04-02T13:48:28.760Z,13.41
2023-04-02T13:50:57.297Z,13.39
2023-04-02T13:53:29.506Z,13.40
2023-04-02T13:55:57.650Z,13.37
2023-04-02T13:58:25.767Z,13.34
2023-04-02T14:00:58.189Z,13.29
2023-04-02T14:03:27.310Z,13.24
2023-04-02T14:06:22.452Z,13.23
2023-04-02T14:09:18.323Z,13.20
2023-04-02T14:12:32.155Z,13.15
2023-04-02T14:15:12.636Z,13.09
2023-04-02T14:17:59.619Z,13.07
2023-04-02T14:20:44.830Z,13.05
2023-04-02T14:23:35.201Z,13.03
2023-04-02T14:26:31.436Z,13.01
2023-04-02T14:29:21.476Z,12.96
2023-04-02T14:31:59.418Z,12.95
2023-04-02T14:34:39.801Z,12.96
2023-04-02T14:37:13.589Z,12.91
2023-04-02T14:39:47.774Z,12.84
2023-04-02T14:42:50.971Z,12.80
2023-04-02T14:45:36.971Z,12.73
2023-04-02T14:48:24.914Z,12.73
2023-04-02T14:51:02.379Z,12.67
2023-04-02T14:53:48.210Z,12.64
2023-04-02T14:56:16.956Z,12.68
2023-04-02T14:58:49.393Z,12.68
2023-04-02T15:01:33.768Z,12.70
2023-04-02T15:04:23.442Z,12.71
2023-04-02T15:06:53.222Z,12.72
2023-04-02T15:09:57.457Z,12.66
2023-04-02T15:12:29.027Z,12.62
2023-04-02T15:15:45.698Z,12.60
2023-04-02T15:18:16.377Z,12.61
2023-04-02T15:20:47.482Z,12.60
2023-04-02T15:23:36.944Z,12.57
2023-04-02T15:26:21.721Z,12.53
2023-04-02T15:29:25.889Z,12.52
2023-04-02T15:32:35.069Z,12.53
2023-04-02T15:35:10.978Z,12.54
2023-04-02T15:37:49.917Z,12.52
2023-04-02T15:40:38.684Z,12.49
2023-04-02T15:43:11.282Z,12.45
2023-04-02T15:46:07.720Z,12.43
2023-04-02T15:49:01.365Z,12.42
2023-04-02T15:51:45.444Z,12.39
2023-04-02T15:54:27.035Z,12.38
2023-04-02T15:57:02.434Z,12.39
2023-04-02T15:59:51.962Z,12.38
2023-04-02T16:02:29.104Z,12.38
2023-04-02T16:05:05.693Z,12.40
2023-04-02T16:07:46.961Z,12.39
2023-04-02T16:10:37.966Z,12.39
2023-04-02T16:13:28.439Z,12.40
2023-04-02T16:16:07.014Z,12.41
2023-04-02T16:19:26.219Z,12.43
2023-04-02T16:21:58.912Z,12.46
2023-04-02T16:24:27.206Z,12.46
2023-04-02T16:26:55.433Z,12.46
2023-04-02T16:30:11.499Z,12.47
2023-04-02T16:33:17.049Z,12.46
2023-04-02T16:36:25.721Z,12.48
2023-04-02T16:38:58.912Z,12.46
2023-04-02T16:41:45.772Z,12.47
2023-04-02T16:44:24.790Z,12.47
2023-04-02T16:47:02.022Z,12.46
2023-04-02T16:49:44.472Z,12.46
2023-04-02T16:52:38.408Z,12.48
2023-04-02T16:55:13.029Z,12.48
2023-04-02T16:57:57.560Z,12.49
2023-04-02T17:00:40.800Z,12.56
2023-04-02T17:03:37.385Z,12.62
2023-04-02T17:06:15.519Z,12.63
2023-04-02T17:08:47.326Z,12.62
2023-04-02T17:11:23.814Z,12.62
2023-04-02T17:14:06.050Z,12.63
2023-04-02T17:16:44.992Z,12.60
2023-04-02T17:19:15.690Z,12.57
2023-04-02T17:21:47.222Z,12.52
2023-04-02T17:24:26.030Z,12.50
2023-04-02T17:27:00.764Z,12.51
2023-04-02T17:29:39.570Z,12.53
2023-04-02T17:32:15.129Z,12.55
2023-04-02T17:34:43.407Z,12.51
2023-04-02T17:37:29.858Z,12.51
2023-04-02T17:40:08.515Z,12.49
2023-04-02T17:42:54.729Z,12.49
2023-04-02T17:45:44.756Z,12.50
2023-04-02T17:48:22.216Z,12.48
2023-04-02T17:50:55.746Z,12.44
2023-04-02T17:53:43.067Z,12.40
2023-04-02T17:56:29.007Z,12.39
2023-04-02T17:59:14.958Z,12.40
2023-04-02T18:01:49.654Z,12.37
2023-04-02T18:04:41.572Z,12.32
2023-04-02T18:07:34.598Z,12.23
2023-04-02T18:10:27.915Z,12.15
2023-04-02T18:13:02.098Z,12.11
2023-04-02T18:15:36.248Z,12.09
2023-04-02T18:18:14.415Z,12.06
2023-04-02T18:20:57.157Z,11.99
2023-04-02T18:23:45.482Z,11.86
2023-04-02T18:26:19.701Z,11.70
2023-04-02T18:29:16.732Z,11.57
2023-04-02T18:32:22.600Z,11.43
2023-04-02T18:35:13.204Z,11.29
2023-04-02T18:38:04.663Z,11.21
2023-04-02T18:40:54.575Z,11.14
2023-04-02T18:43:50.168Z,11.07
2023-04-02T18:46:47.028Z,11.00
2023-04-02T18:49:39.073Z,10.94
2023-04-02T18:52:15.326Z,10.90
2023-04-02T18:54:48.097Z,10.87
2023-04-02T18:57:20.090Z,10.83
2023-04-02T18:59:53.084Z,10.79
2023-04-02T19:02:39.119Z,10.73
2023-04-02T19:05:35.666Z,10.69
2023-04-02T19:08:16.533Z,10.68
2023-04-02T19:10:46.375Z,10.68
2023-04-02T19:13:22.672Z,10.71
2023-04-02T19:16:01.696Z,10.75
2023-04-02T19:18:51.612Z,10.75
2023-04-02T19:21:40.519Z,10.74
2023-04-02T19:24:39.262Z,10.73
2023-04-02T19:27:19.937Z,10.72
2023-04-02T19:30:09.981Z,10.70
2023-04-02T19:33:06.615Z,10.68
2023-04-02T19:35:43.536Z,10.64
2023-04-02T19:38:31.240Z,10.64
2023-04-02T19:41:18.891Z,10.65
2023-04-02T19:43:47.117Z,10.65
2023-04-02T19:46:15.558Z,10.65
2023-04-02T19:49:00.357Z,10.63
2023-04-02T19:51:28.670Z,10.65
2023-04-02T19:53:56.694Z,10.63
2023-04-02T19:56:25.083Z,10.63
2023-04-02T19:58:53.158Z,10.63
2023-04-02T20:01:21.402Z,10.61
2023-04-02T20:03:49.604Z,10.58
2023-04-02T20:06:21.470Z,10.56
2023-04-02T20:08:50.442Z,10.53
2023-04-02T20:11:18.443Z,10.55
2023-04-02T20:13:53.931Z,10.54
2023-04-02T20:16:22.926Z,10.52
2023-04-02T20:18:50.975Z,10.52
2023-04-02T20:21:19.546Z,10.51
2023-04-02T20:23:47.753Z,10.50
2023-04-02T20:26:16.201Z,10.48
2023-04-02T20:28:45.564Z,10.46
2023-04-02T20:31:15.521Z,10.43
2023-04-02T20:33:44.739Z,10.43
2023-04-02T20:36:14.482Z,10.45
2023-04-02T20:38:42.331Z,10.48
2023-04-02T20:41:10.385Z,10.47
2023-04-02T20:43:42.941Z,10.45
2023-04-02T20:46:12.234Z,10.43
2023-04-02T20:48:40.819Z,10.43
2023-04-02T20:51:09.902Z,10.43
2023-04-02T20:53:38.516Z,10.41
2023-04-02T20:56:08.824Z,10.43
2023-04-02T20:58:38.197Z,10.41
2023-04-02T21:01:22.924Z,10.38
2023-04-02T21:04:02.371Z,10.34
2023-04-02T21:06:32.700Z,10.28
2023-04-02T21:09:03.187Z,10.27
2023-04-02T21:11:33.060Z,10.27
2023-04-02T21:14:01.193Z,10.31
2023-04-02T21:16:31.380Z,10.35
2023-04-02T21:19:01.440Z,10.36
2023-04-02T21:21:31.713Z,10.38
2023-04-02T21:24:02.161Z,10.41
2023-04-02T21:26:33.466Z,10.41
2023-04-02T21:29:05.394Z,10.43
2023-04-02T21:31:36.128Z,10.45
2023-04-02T21:34:04.990Z,10.48
2023-04-02T21:36:34.924Z,10.51
2023-04-02T21:39:07.478Z,10.51
2023-04-02T21:41:39.043Z,10.51
2023-04-02T21:44:08.453Z,10.52
2023-04-02T21:46:38.737Z,10.52
2023-04-02T21:49:10.458Z,10.51
2023-04-02T21:51:39.322Z,10.51
2023-04-02T21:54:09.189Z,10.49
2023-04-02T21:56:41.602Z,10.45
2023-04-02T21:59:10.794Z,10.43
2023-04-02T22:01:43.748Z,10.46
2023-04-02T22:04:21.607Z,10.45
2023-04-02T22:06:50.267Z,10.47
2023-04-02T22:09:20.356Z,10.48
2023-04-02T22:11:51.012Z,10.48
2023-04-02T22:14:19.055Z,10.48
2023-04-02T22:16:47.354Z,10.49
2023-04-02T22:19:21.444Z,10.47
2023-04-02T22:21:49.877Z,10.47
2023-04-02T22:24:22.652Z,10.51
2023-04-02T22:26:51.077Z,10.54
2023-04-02T22:29:19.300Z,10.58
2023-04-02T22:31:47.678Z,10.62
2023-04-02T22:34:16.029Z,10.66
2023-04-02T22:36:44.111Z,10.68
2023-04-02T22:39:13.395Z,10.70
2023-04-02T22:41:41.516Z,10.69
2023-04-02T22:44:12.275Z,10.68
2023-04-02T22:46:40.693Z,10.70
2023-04-02T22:49:11.157Z,10.68
2023-04-02T22:51:40.082Z,10.63
2023-04-02T22:54:08.549Z,10.60
2023-04-02T22:56:37.730Z,10.57
2023-04-02T22:59:06.958Z,10.59
2023-04-02T23:01:35.773Z,10.61
2023-04-02T23:04:05.333Z,10.63
2023-04-02T23:06:34.937Z,10.66
2023-04-02T23:09:04.218Z,10.68
2023-04-02T23:11:41.398Z,10.67
2023-04-02T23:14:09.559Z,10.68
2023-04-02T23:16:37.568Z,10.69
2023-04-02T23:19:07.647Z,10.70
2023-04-02T23:21:38.014Z,10.67
2023-04-02T23:24:12.043Z,10.66
2023-04-02T23:26:40.474Z,10.64
2023-04-02T23:29:09.541Z,10.61
2023-04-02T23:31:38.031Z,10.62
2023-04-02T23:34:07.697Z,10.63
2023-04-02T23:36:35.996Z,10.64
2023-04-02T23:39:09.522Z,10.67
2023-04-02T23:41:38.414Z,10.66
2023-04-02T23:44:06.568Z,10.66
2023-04-02T23:46:35.664Z,10.66
2023-04-02T23:49:04.057Z,10.65
2023-04-02T23:51:33.208Z,10.67
2023-04-02T23:54:01.568Z,10.70
2023-04-02T23:56:31.826Z,10.72
2023-04-02T23:58:59.981Z,10.71
